Aviation Digital Data Service (ADDS)

Output produced by METARs form (0429 UTC 19 February 2019)
found at http://www.aviationweather.gov/metar/data/
 
METAR text: CYGK 190400Z 33006KT 15SM FEW250 M12/M19 A3039 RMK CI2 LAST STFD OBS/NEXT 191100 UTC SLP301
Conditions at: CYGK (KINGSTON ARPT (M, ON, CA) observed 0400 UTC 19 February 2019
Temperature: -12.0°C (10°F)
Dewpoint: -19.0°C (-2°F) [RH = 56%]
Pressure (altimeter): 30.39 inches Hg (1029.2 mb)
[Sea-level pressure: 1030.1 mb]
Winds: from the NNW (330 degrees) at 7 MPH (6 knots; 3.1 m/s)
Visibility: 15 miles (24 km)
Ceiling: at least 12,000 feet AGL
Clouds: few clouds at 25000 feet AGL
Weather: no significant weather observed at this time

METAR text: CYGK 190300Z 34005KT 15SM SCT250 M12/M19 A3037 RMK CI3 SLP292
Conditions at: CYGK (KINGSTON ARPT (M, ON, CA) observed 0300 UTC 19 February 2019
Temperature: -12.0°C (10°F)
Dewpoint: -19.0°C (-2°F) [RH = 56%]
Pressure (altimeter): 30.37 inches Hg (1028.5 mb)
[Sea-level pressure: 1029.2 mb]
Winds: from the NNW (340 degrees) at 6 MPH (5 knots; 2.6 m/s)
Visibility: 15 miles (24 km)
Ceiling: at least 12,000 feet AGL
Clouds: scattered clouds at 25000 feet AGL
Weather: no significant weather observed at this time

METAR text: CYGK 190200Z 34006KT 15SM SCT250 M11/M17 A3033 RMK CI4 SLP280
Conditions at: CYGK (KINGSTON ARPT (M, ON, CA) observed 0200 UTC 19 February 2019
Temperature: -11.0°C (12°F)
Dewpoint: -17.0°C ( 1°F) [RH = 61%]
Pressure (altimeter): 30.33 inches Hg (1027.2 mb)
[Sea-level pressure: 1028.0 mb]
Winds: from the NNW (340 degrees) at 7 MPH (6 knots; 3.1 m/s)
Visibility: 15 miles (24 km)
Ceiling: at least 12,000 feet AGL
Clouds: scattered clouds at 25000 feet AGL
Weather: no significant weather observed at this time

METAR text: CYGK 190100Z 33004KT 15SM SCT250 M09/M16 A3030 RMK CI3 SLP269
Conditions at: CYGK (KINGSTON ARPT (M, ON, CA) observed 0100 UTC 19 February 2019
Temperature: -9.0°C (16°F)
Dewpoint: -16.0°C ( 3°F) [RH = 57%]
Pressure (altimeter): 30.30 inches Hg (1026.2 mb)
[Sea-level pressure: 1026.9 mb]
Winds: from the NNW (330 degrees) at 5 MPH (4 knots; 2.1 m/s)
Visibility: 15 miles (24 km)
Ceiling: at least 12,000 feet AGL
Clouds: scattered clouds at 25000 feet AGL
Weather: no significant weather observed at this time

METAR text: CYGK 190000Z 30002KT 15SM FEW020 FEW250 M07/M18 A3026 RMK SC1CI1 SC TR SLP256
Conditions at: CYGK (KINGSTON ARPT (M, ON, CA) observed 0000 UTC 19 February 2019
Temperature: -7.0°C (19°F)
Dewpoint: -18.0°C (-0°F) [RH = 41%]
Pressure (altimeter): 30.26 inches Hg (1024.8 mb)
[Sea-level pressure: 1025.6 mb]
Winds: from the WNW (300 degrees) at 2 MPH (2 knots; 1.0 m/s)
Visibility: 15 miles (24 km)
Ceiling: at least 12,000 feet AGL
Clouds: few clouds at 2000 feet AGL
few clouds at 25000 feet AGL
Weather: no significant weather observed at this time

METAR text: CYGK 182300Z 29003KT 15SM FEW020 FEW250 M06/M17 A3022 RMK SC1CI1 SC TR PRESRR SLP240
Conditions at: CYGK (KINGSTON ARPT (M, ON, CA) observed 2300 UTC 18 February 2019
Temperature: -6.0°C (21°F)
Dewpoint: -17.0°C ( 1°F) [RH = 41%]
Pressure (altimeter): 30.22 inches Hg (1023.5 mb)
[Sea-level pressure: 1024.0 mb]
Winds: from the WNW (290 degrees) at 3 MPH (3 knots; 1.5 m/s)
Visibility: 15 miles (24 km)
Ceiling: at least 12,000 feet AGL
Clouds: few clouds at 2000 feet AGL
few clouds at 25000 feet AGL
Weather: no significant weather observed at this time

METAR text: CYGK 182200Z 31006KT 15SM FEW020 SCT270 M05/M17 A3017 RMK CF1CI3 CF TR SLP225
Conditions at: CYGK (KINGSTON ARPT (M, ON, CA) observed 2200 UTC 18 February 2019
Temperature: -5.0°C (23°F)
Dewpoint: -17.0°C ( 1°F) [RH = 38%]
Pressure (altimeter): 30.17 inches Hg (1021.8 mb)
[Sea-level pressure: 1022.5 mb]
Winds: from the NW (310 degrees) at 7 MPH (6 knots; 3.1 m/s)
Visibility: 15 miles (24 km)
Ceiling: at least 12,000 feet AGL
Clouds: few clouds at 2000 feet AGL
scattered clouds at 27000 feet AGL
Weather: no significant weather observed at this time

METAR text: CYGK 182100Z 29009KT 290V350 15SM FEW015 SCT270 M05/M17 A3015 RMK CF1CI3 CF TR SLP217
Conditions at: CYGK (KINGSTON ARPT (M, ON, CA) observed 2100 UTC 18 February 2019
Temperature: -5.0°C (23°F)
Dewpoint: -17.0°C ( 1°F) [RH = 38%]
Pressure (altimeter): 30.15 inches Hg (1021.1 mb)
[Sea-level pressure: 1021.7 mb]
Winds: from the WNW (290 degrees) at 10 MPH (9 knots; 4.6 m/s)
Visibility: 15 miles (24 km)
Ceiling: at least 12,000 feet AGL
Clouds: few clouds at 1500 feet AGL
scattered clouds at 27000 feet AGL
Weather: no significant weather observed at this time

METAR text: CYGK 182000Z 32012KT 15SM FEW020 FEW120 SCT250 M06/M16 A3012 RMK CF1AC1CI2 CF TR SLP206
Conditions at: CYGK (KINGSTON ARPT (M, ON, CA) observed 2000 UTC 18 February 2019
Temperature: -6.0°C (21°F)
Dewpoint: -16.0°C ( 3°F) [RH = 45%]
Pressure (altimeter): 30.12 inches Hg (1020.1 mb)
[Sea-level pressure: 1020.6 mb]
Winds: from the NW (320 degrees) at 14 MPH (12 knots; 6.2 m/s)
Visibility: 15 miles (24 km)
Ceiling: at least 12,000 feet AGL
Clouds: few clouds at 2000 feet AGL
few clouds at 12000 feet AGL
scattered clouds at 25000 feet AGL
Weather: no significant weather observed at this time

METAR text: CYGK 181900Z 36009G16KT 15SM FEW020 FEW040 SCT250 M06/M16 A3009 RMK CF1SC1CI2 CF TR SLP197
Conditions at: CYGK (KINGSTON ARPT (M, ON, CA) observed 1900 UTC 18 February 2019
Temperature: -6.0°C (21°F)
Dewpoint: -16.0°C ( 3°F) [RH = 45%]
Pressure (altimeter): 30.09 inches Hg (1019.0 mb)
[Sea-level pressure: 1019.7 mb]
Winds: from the N (360 degrees) at 10 MPH (9 knots; 4.6 m/s)
gusting to 18 MPH (16 knots; 8.2 m/s)
Visibility: 15 miles (24 km)
Ceiling: at least 12,000 feet AGL
Clouds: few clouds at 2000 feet AGL
few clouds at 4000 feet AGL
scattered clouds at 25000 feet AGL
Weather: no significant weather observed at this time

METAR text: CYGK 181831Z 34011KT 15SM SCT040 BKN250 M07/M14 A3008 RMK SC3CI2 SLP193
Conditions at: CYGK (KINGSTON ARPT (M, ON, CA) observed 1831 UTC 18 February 2019
Temperature: -7.0°C (19°F)
Dewpoint: -14.0°C ( 7°F) [RH = 57%]
Pressure (altimeter): 30.08 inches Hg (1018.7 mb)
[Sea-level pressure: 1019.3 mb]
Winds: from the NNW (340 degrees) at 13 MPH (11 knots; 5.7 m/s)
Visibility: 15 miles (24 km)
Ceiling: 25000 feet AGL
Clouds: scattered clouds at 4000 feet AGL
broken clouds at 25000 feet AGL
Weather: no significant weather observed at this time

METAR text: CYGK 181800Z 34011KT 15SM -SN BKN036 BKN250 M07/M14 A3007 RMK SC6CI1 SLP192
Conditions at: CYGK (KINGSTON ARPT (M, ON, CA) observed 1800 UTC 18 February 2019
Temperature: -7.0°C (19°F)
Dewpoint: -14.0°C ( 7°F) [RH = 57%]
Pressure (altimeter): 30.07 inches Hg (1018.4 mb)
[Sea-level pressure: 1019.2 mb]
Winds: from the NNW (340 degrees) at 13 MPH (11 knots; 5.7 m/s)
Visibility: 15 miles (24 km)
Ceiling: 3600 feet AGL
Clouds: broken clouds at 3600 feet AGL
broken clouds at 25000 feet AGL
Weather: -SN  (light snow)

METAR text: CYGK 181748Z 36012KT 15SM -SN OVC030 M07/M14 A3007 RMK SC8 PRESRR SLP191
Conditions at: CYGK (KINGSTON ARPT (M, ON, CA) observed 1748 UTC 18 February 2019
Temperature: -7.0°C (19°F)
Dewpoint: -14.0°C ( 7°F) [RH = 57%]
Pressure (altimeter): 30.07 inches Hg (1018.4 mb)
[Sea-level pressure: 1019.1 mb]
Winds: from the N (360 degrees) at 14 MPH (12 knots; 6.2 m/s)
Visibility: 15 miles (24 km)
Ceiling: 3000 feet AGL
Clouds: overcast cloud deck at 3000 feet AGL
Weather: -SN  (light snow)

METAR text: CYGK 181700Z 01014KT 15SM FEW015 OVC040 M08/M14 A3004 RMK CF1SC8 CF TR SLP181
Conditions at: CYGK (KINGSTON ARPT (M, ON, CA) observed 1700 UTC 18 February 2019
Temperature: -8.0°C (18°F)
Dewpoint: -14.0°C ( 7°F) [RH = 62%]
Pressure (altimeter): 30.04 inches Hg (1017.4 mb)
[Sea-level pressure: 1018.1 mb]
Winds: from the N (10 degrees) at 16 MPH (14 knots; 7.2 m/s)
Visibility: 15 miles (24 km)
Ceiling: 4000 feet AGL
Clouds: few clouds at 1500 feet AGL
overcast cloud deck at 4000 feet AGL
Weather: no significant weather observed at this time

METAR text: CYGK 181627Z 36015G20KT 15SM DRSN FEW015 OVC039 M08/M13 A3003 RMK CF1SC8 CF TR SLP178
Conditions at: CYGK (KINGSTON ARPT (M, ON, CA) observed 1627 UTC 18 February 2019
Temperature: -8.0°C (18°F)
Dewpoint: -13.0°C ( 9°F) [RH = 67%]
Pressure (altimeter): 30.03 inches Hg (1017.0 mb)
[Sea-level pressure: 1017.8 mb]
Winds: from the N (360 degrees) at 17 MPH (15 knots; 7.7 m/s)
gusting to 23 MPH (20 knots; 10.3 m/s)
Visibility: 15 miles (24 km)
Ceiling: 3900 feet AGL
Clouds: few clouds at 1500 feet AGL
overcast cloud deck at 3900 feet AGL
Weather: DRSN  (low drifting snow)

METAR text: CYGK 181600Z 35013G19KT 2SM -SN DRSN OVC015 M09/M12 A3002 RMK SN2SC6 PRESRR SLP172
Conditions at: CYGK (KINGSTON ARPT (M, ON, CA) observed 1600 UTC 18 February 2019
Temperature: -9.0°C (16°F)
Dewpoint: -12.0°C (10°F) [RH = 79%]
Pressure (altimeter): 30.02 inches Hg (1016.7 mb)
[Sea-level pressure: 1017.2 mb]
Winds: from the N (350 degrees) at 15 MPH (13 knots; 6.7 m/s)
gusting to 22 MPH (19 knots; 9.8 m/s)
Visibility: 2.00 miles (3.22 km)
Ceiling: 1500 feet AGL
Clouds: overcast cloud deck at 1500 feet AGL
Weather: -SN DRSN  (light snow, low drifting snow)

METAR text: CYGK 181500Z 02017G23KT 4SM -SN DRSN SCT013 OVC030 M10/M14 A2997 RMK SC3NS5 SLP156
Conditions at: CYGK (KINGSTON ARPT (M, ON, CA) observed 1500 UTC 18 February 2019
Temperature: -10.0°C (14°F)
Dewpoint: -14.0°C ( 7°F) [RH = 72%]
Pressure (altimeter): 29.97 inches Hg (1015.0 mb)
[Sea-level pressure: 1015.6 mb]
Winds: from the NNE (20 degrees) at 20 MPH (17 knots; 8.7 m/s)
gusting to 26 MPH (23 knots; 11.8 m/s)
Visibility: 4 miles ( 6 km)
Ceiling: 3000 feet AGL
Clouds: scattered clouds at 1300 feet AGL
overcast cloud deck at 3000 feet AGL
Weather: -SN DRSN  (light snow, low drifting snow)

METAR text: CYGK 181420Z 02011G20KT 4SM -SN DRSN SCT020 OVC030 M10/M13 A2995 RMK SC3NS5 SLP150
Conditions at: CYGK (KINGSTON ARPT (M, ON, CA) observed 1420 UTC 18 February 2019
Temperature: -10.0°C (14°F)
Dewpoint: -13.0°C ( 9°F) [RH = 79%]
Pressure (altimeter): 29.95 inches Hg (1014.3 mb)
[Sea-level pressure: 1015.0 mb]
Winds: from the NNE (20 degrees) at 13 MPH (11 knots; 5.7 m/s)
gusting to 23 MPH (20 knots; 10.3 m/s)
Visibility: 4 miles ( 6 km)
Ceiling: 3000 feet AGL
Clouds: scattered clouds at 2000 feet AGL
overcast cloud deck at 3000 feet AGL
Weather: -SN DRSN  (light snow, low drifting snow)

METAR text: CYGK 181400Z 02014G22KT 1 1/2SM -SN DRSN SCT022 OVC032 M10/M13 A2994 RMK SC3NS5 SLP146
Conditions at: CYGK (KINGSTON ARPT (M, ON, CA) observed 1400 UTC 18 February 2019
Temperature: -10.0°C (14°F)
Dewpoint: -13.0°C ( 9°F) [RH = 79%]
Pressure (altimeter): 29.94 inches Hg (1014.0 mb)
[Sea-level pressure: 1014.6 mb]
Winds: from the NNE (20 degrees) at 16 MPH (14 knots; 7.2 m/s)
gusting to 25 MPH (22 knots; 11.3 m/s)
Visibility: 1.50 miles (2.41 km)
Ceiling: 3200 feet AGL
Clouds: scattered clouds at 2200 feet AGL
overcast cloud deck at 3200 feet AGL
Weather: -SN DRSN  (light snow, low drifting snow)

METAR text: CYGK 181307Z 03011G21KT 1SM -SN DRSN OVC024 M10/M14 A2992 RMK SN2NS6 SLP141
Conditions at: CYGK (KINGSTON ARPT (M, ON, CA) observed 1307 UTC 18 February 2019
Temperature: -10.0°C (14°F)
Dewpoint: -14.0°C ( 7°F) [RH = 72%]
Pressure (altimeter): 29.92 inches Hg (1013.3 mb)
[Sea-level pressure: 1014.1 mb]
Winds: from the NNE (30 degrees) at 13 MPH (11 knots; 5.7 m/s)
gusting to 24 MPH (21 knots; 10.8 m/s)
Visibility: 1.00 miles (1.61 km)
Ceiling: 2400 feet AGL
Clouds: overcast cloud deck at 2400 feet AGL
Weather: -SN DRSN  (light snow, low drifting snow)

METAR text: CYGK 181300Z 03013G20KT 2 1/2SM -SN DRSN SCT022 OVC036 M10/M14 A2992 RMK SC4NS4 SLP140
Conditions at: CYGK (KINGSTON ARPT (M, ON, CA) observed 1300 UTC 18 February 2019
Temperature: -10.0°C (14°F)
Dewpoint: -14.0°C ( 7°F) [RH = 72%]
Pressure (altimeter): 29.92 inches Hg (1013.3 mb)
[Sea-level pressure: 1014.0 mb]
Winds: from the NNE (30 degrees) at 15 MPH (13 knots; 6.7 m/s)
gusting to 23 MPH (20 knots; 10.3 m/s)
Visibility: 2.50 miles (4.02 km)
Ceiling: 3600 feet AGL
Clouds: scattered clouds at 2200 feet AGL
overcast cloud deck at 3600 feet AGL
Weather: -SN DRSN  (light snow, low drifting snow)

METAR text: CYGK 181229Z 02011G19KT 1 1/2SM -SN DRSN OVC026 M10/M14 A2991 RMK NS8 SLP135
Conditions at: CYGK (KINGSTON ARPT (M, ON, CA) observed 1229 UTC 18 February 2019
Temperature: -10.0°C (14°F)
Dewpoint: -14.0°C ( 7°F) [RH = 72%]
Pressure (altimeter): 29.91 inches Hg (1013.0 mb)
[Sea-level pressure: 1013.5 mb]
Winds: from the NNE (20 degrees) at 13 MPH (11 knots; 5.7 m/s)
gusting to 22 MPH (19 knots; 9.8 m/s)
Visibility: 1.50 miles (2.41 km)
Ceiling: 2600 feet AGL
Clouds: overcast cloud deck at 2600 feet AGL
Weather: -SN DRSN  (light snow, low drifting snow)

METAR text: CYGK 181216Z 03013G19KT 2 1/2SM -SN DRSN OVC022 M10/M15 A2990 RMK NS8 SLP133
Conditions at: CYGK (KINGSTON ARPT (M, ON, CA) observed 1216 UTC 18 February 2019
Temperature: -10.0°C (14°F)
Dewpoint: -15.0°C ( 5°F) [RH = 67%]
Pressure (altimeter): 29.90 inches Hg (1012.6 mb)
[Sea-level pressure: 1013.3 mb]
Winds: from the NNE (30 degrees) at 15 MPH (13 knots; 6.7 m/s)
gusting to 22 MPH (19 knots; 9.8 m/s)
Visibility: 2.50 miles (4.02 km)
Ceiling: 2200 feet AGL
Clouds: overcast cloud deck at 2200 feet AGL
Weather: -SN DRSN  (light snow, low drifting snow)

METAR text: CYGK 181200Z 02011G18KT 5SM -SN DRSN SCT025 OVC044 M10/M16 A2989 RMK SC4NS4 SLP131
Conditions at: CYGK (KINGSTON ARPT (M, ON, CA) observed 1200 UTC 18 February 2019
Temperature: -10.0°C (14°F)
Dewpoint: -16.0°C ( 3°F) [RH = 61%]
Pressure (altimeter): 29.89 inches Hg (1012.3 mb)
[Sea-level pressure: 1013.1 mb]
Winds: from the NNE (20 degrees) at 13 MPH (11 knots; 5.7 m/s)
gusting to 21 MPH (18 knots; 9.3 m/s)
Visibility: 5 miles ( 8 km)
Ceiling: 4400 feet AGL
Clouds: scattered clouds at 2500 feet AGL
overcast cloud deck at 4400 feet AGL
Weather: -SN DRSN  (light snow, low drifting snow)

METAR text: CYGK 181132Z 03015G20KT 4SM -SN DRSN OVC025 M10/M16 A2988 RMK NS8 SLP127
Conditions at: CYGK (KINGSTON ARPT (M, ON, CA) observed 1132 UTC 18 February 2019
Temperature: -10.0°C (14°F)
Dewpoint: -16.0°C ( 3°F) [RH = 61%]
Pressure (altimeter): 29.88 inches Hg (1011.9 mb)
[Sea-level pressure: 1012.7 mb]
Winds: from the NNE (30 degrees) at 17 MPH (15 knots; 7.7 m/s)
gusting to 23 MPH (20 knots; 10.3 m/s)
Visibility: 4 miles ( 6 km)
Ceiling: 2500 feet AGL
Clouds: overcast cloud deck at 2500 feet AGL
Weather: -SN DRSN  (light snow, low drifting snow)

METAR text: CYGK 181100Z 03015G22KT 2 1/2SM -SN DRSN OVC023 M10/M15 A2988 RMK NS8 SLP125
Conditions at: CYGK (KINGSTON ARPT (M, ON, CA) observed 1100 UTC 18 February 2019
Temperature: -10.0°C (14°F)
Dewpoint: -15.0°C ( 5°F) [RH = 67%]
Pressure (altimeter): 29.88 inches Hg (1011.9 mb)
[Sea-level pressure: 1012.5 mb]
Winds: from the NNE (30 degrees) at 17 MPH (15 knots; 7.7 m/s)
gusting to 25 MPH (22 knots; 11.3 m/s)
Visibility: 2.50 miles (4.02 km)
Ceiling: 2300 feet AGL
Clouds: overcast cloud deck at 2300 feet AGL
Weather: -SN DRSN  (light snow, low drifting snow)

METAR text: CYGK 180400Z 04015G20KT 15SM SCT090 OVC110 M09/M17 A2996 RMK AC4AC4 LAST STFD OBS/NEXT 181100 UTC SLP153
Conditions at: CYGK (KINGSTON ARPT (M, ON, CA) observed 0400 UTC 18 February 2019
Temperature: -9.0°C (16°F)
Dewpoint: -17.0°C ( 1°F) [RH = 52%]
Pressure (altimeter): 29.96 inches Hg (1014.6 mb)
[Sea-level pressure: 1015.3 mb]
Winds: from the NE (40 degrees) at 17 MPH (15 knots; 7.7 m/s)
gusting to 23 MPH (20 knots; 10.3 m/s)
Visibility: 15 miles (24 km)
Ceiling: 11000 feet AGL
Clouds: scattered clouds at 9000 feet AGL
overcast cloud deck at 11000 feet AGL
Weather: no significant weather observed at this time

METAR text: CYGK 180300Z 05013G19KT 15SM FEW090 OVC110 M09/M17 A2999 RMK AC2AC6 SLP162
Conditions at: CYGK (KINGSTON ARPT (M, ON, CA) observed 0300 UTC 18 February 2019
Temperature: -9.0°C (16°F)
Dewpoint: -17.0°C ( 1°F) [RH = 52%]
Pressure (altimeter): 29.99 inches Hg (1015.7 mb)
[Sea-level pressure: 1016.2 mb]
Winds: from the NE (50 degrees) at 15 MPH (13 knots; 6.7 m/s)
gusting to 22 MPH (19 knots; 9.8 m/s)
Visibility: 15 miles (24 km)
Ceiling: 11000 feet AGL
Clouds: few clouds at 9000 feet AGL
overcast cloud deck at 11000 feet AGL
Weather: no significant weather observed at this time

METAR text: CYGK 180200Z 04014KT 15SM OVC100 M09/M18 A2999 RMK AC8 SLP164
Conditions at: CYGK (KINGSTON ARPT (M, ON, CA) observed 0200 UTC 18 February 2019
Temperature: -9.0°C (16°F)
Dewpoint: -18.0°C (-0°F) [RH = 48%]
Pressure (altimeter): 29.99 inches Hg (1015.7 mb)
[Sea-level pressure: 1016.4 mb]
Winds: from the NE (40 degrees) at 16 MPH (14 knots; 7.2 m/s)
Visibility: 15 miles (24 km)
Ceiling: 10000 feet AGL
Clouds: overcast cloud deck at 10000 feet AGL
Weather: no significant weather observed at this time

METAR text: CYGK 180100Z 04009G15KT 15SM OVC100 M08/M17 A3002 RMK AC8 SLP176
Conditions at: CYGK (KINGSTON ARPT (M, ON, CA) observed 0100 UTC 18 February 2019
Temperature: -8.0°C (18°F)
Dewpoint: -17.0°C ( 1°F) [RH = 48%]
Pressure (altimeter): 30.02 inches Hg (1016.7 mb)
[Sea-level pressure: 1017.6 mb]
Winds: from the NE (40 degrees) at 10 MPH (9 knots; 4.6 m/s)
gusting to 17 MPH (15 knots; 7.7 m/s)
Visibility: 15 miles (24 km)
Ceiling: 10000 feet AGL
Clouds: overcast cloud deck at 10000 feet AGL
Weather: no significant weather observed at this time

METAR text: CYGK 180000Z 04013KT 15SM OVC100 M08/M17 A3002 RMK AC8 SLP176
Conditions at: CYGK (KINGSTON ARPT (M, ON, CA) observed 0000 UTC 18 February 2019
Temperature: -8.0°C (18°F)
Dewpoint: -17.0°C ( 1°F) [RH = 48%]
Pressure (altimeter): 30.02 inches Hg (1016.7 mb)
[Sea-level pressure: 1017.6 mb]
Winds: from the NE (40 degrees) at 15 MPH (13 knots; 6.7 m/s)
Visibility: 15 miles (24 km)
Ceiling: 10000 feet AGL
Clouds: overcast cloud deck at 10000 feet AGL
Weather: no significant weather observed at this time

METAR text: CYGK 172300Z 04010KT 15SM OVC110 M08/M17 A3005 RMK AC8 SLP185
Conditions at: CYGK (KINGSTON ARPT (M, ON, CA) observed 2300 UTC 17 February 2019
Temperature: -8.0°C (18°F)
Dewpoint: -17.0°C ( 1°F) [RH = 48%]
Pressure (altimeter): 30.05 inches Hg (1017.7 mb)
[Sea-level pressure: 1018.5 mb]
Winds: from the NE (40 degrees) at 12 MPH (10 knots; 5.1 m/s)
Visibility: 15 miles (24 km)
Ceiling: 11000 feet AGL
Clouds: overcast cloud deck at 11000 feet AGL
Weather: no significant weather observed at this time

METAR text: CYGK 172200Z 04010G15KT 15SM OVC120 M08/M17 A3005 RMK AC8 SLP186
Conditions at: CYGK (KINGSTON ARPT (M, ON, CA) observed 2200 UTC 17 February 2019
Temperature: -8.0°C (18°F)
Dewpoint: -17.0°C ( 1°F) [RH = 48%]
Pressure (altimeter): 30.05 inches Hg (1017.7 mb)
[Sea-level pressure: 1018.6 mb]
Winds: from the NE (40 degrees) at 12 MPH (10 knots; 5.1 m/s)
gusting to 17 MPH (15 knots; 7.7 m/s)
Visibility: 15 miles (24 km)
Ceiling: 12000 feet AGL
Clouds: overcast cloud deck at 12000 feet AGL
Weather: no significant weather observed at this time

METAR text: CYGK 172100Z 05010G15KT 15SM SCT140 BKN240 M07/M17 A3007 RMK AC3CI4 PRESFR SLP192
Conditions at: CYGK (KINGSTON ARPT (M, ON, CA) observed 2100 UTC 17 February 2019
Temperature: -7.0°C (19°F)
Dewpoint: -17.0°C ( 1°F) [RH = 45%]
Pressure (altimeter): 30.07 inches Hg (1018.4 mb)
[Sea-level pressure: 1019.2 mb]
Winds: from the NE (50 degrees) at 12 MPH (10 knots; 5.1 m/s)
gusting to 17 MPH (15 knots; 7.7 m/s)
Visibility: 15 miles (24 km)
Ceiling: 24000 feet AGL
Clouds: scattered clouds at 14000 feet AGL
broken clouds at 24000 feet AGL
Weather: no significant weather observed at this time

METAR text: CYGK 172000Z 05009KT 360V070 15SM SCT140 BKN230 M07/M17 A3011 RMK AC3CI4 SLP204
Conditions at: CYGK (KINGSTON ARPT (M, ON, CA) observed 2000 UTC 17 February 2019
Temperature: -7.0°C (19°F)
Dewpoint: -17.0°C ( 1°F) [RH = 45%]
Pressure (altimeter): 30.11 inches Hg (1019.7 mb)
[Sea-level pressure: 1020.4 mb]
Winds: from the NE (50 degrees) at 10 MPH (9 knots; 4.6 m/s)
Visibility: 15 miles (24 km)
Ceiling: 23000 feet AGL
Clouds: scattered clouds at 14000 feet AGL
broken clouds at 23000 feet AGL
Weather: no significant weather observed at this time

METAR text: CYGK 171900Z 05009KT 15SM BKN160 OVC250 M08/M17 A3012 RMK AC7CI1 SLP209
Conditions at: CYGK (KINGSTON ARPT (M, ON, CA) observed 1900 UTC 17 February 2019
Temperature: -8.0°C (18°F)
Dewpoint: -17.0°C ( 1°F) [RH = 48%]
Pressure (altimeter): 30.12 inches Hg (1020.1 mb)
[Sea-level pressure: 1020.9 mb]
Winds: from the NE (50 degrees) at 10 MPH (9 knots; 4.6 m/s)
Visibility: 15 miles (24 km)
Ceiling: 16000 feet AGL
Clouds: broken clouds at 16000 feet AGL
overcast cloud deck at 25000 feet AGL
Weather: no significant weather observed at this time

METAR text: CYGK 171800Z 06008KT 15SM BKN200 M08/M17 A3015 RMK CI6 PRESFR SLP218
Conditions at: CYGK (KINGSTON ARPT (M, ON, CA) observed 1800 UTC 17 February 2019
Temperature: -8.0°C (18°F)
Dewpoint: -17.0°C ( 1°F) [RH = 48%]
Pressure (altimeter): 30.15 inches Hg (1021.1 mb)
[Sea-level pressure: 1021.8 mb]
Winds: from the ENE (60 degrees) at 9 MPH (8 knots; 4.1 m/s)
Visibility: 15 miles (24 km)
Ceiling: 20000 feet AGL
Clouds: broken clouds at 20000 feet AGL
Weather: no significant weather observed at this time

METAR text: CYGK 171700Z 07010KT 15SM BKN210 M09/M17 A3017 RMK CI7 SLP225
Conditions at: CYGK (KINGSTON ARPT (M, ON, CA) observed 1700 UTC 17 February 2019
Temperature: -9.0°C (16°F)
Dewpoint: -17.0°C ( 1°F) [RH = 52%]
Pressure (altimeter): 30.17 inches Hg (1021.8 mb)
[Sea-level pressure: 1022.5 mb]
Winds: from the ENE (70 degrees) at 12 MPH (10 knots; 5.1 m/s)
Visibility: 15 miles (24 km)
Ceiling: 21000 feet AGL
Clouds: broken clouds at 21000 feet AGL
Weather: no significant weather observed at this time

Forecast for: CYGK (KINGSTON ARPT (M, ON, CA)
Text: TAF CYGK 190138Z 1902/1904 33005KT P6SM SCT250 RMK NXT FCST WILL BE ISSUED AT 191245Z
Forecast period: 0200 to 0400 UTC 19 February 2019
Forecast type: FROM: standard forecast or significant change
Winds: from the NNW (330 degrees) at 6 MPH (5 knots; 2.6 m/s)
Visibility: 6 or more miles 10+ km)
Ceiling: at least 12,000 feet AGL
Clouds: scattered clouds at 25000 feet AGL
Weather: no significant weather forecast for this period